Time;durP1;ratioP1;P1;durP2;ratioP2;P2;SDS_P1;SDS_P2;PMS_P1;PMS_P2;Temp;Humidity;BMP_temperature;BMP_pressure;BME280_temperature;BME280_humidity;BME280_pressure;Samples;Min_cycle;Max_cycle;Signal;HPM_P1;HPM_P2
2022/05/30 00:02:00;;;;;;;2.00;1.38;;;;;;;17.44;58.89;100077.53;5000854;28;20596;-83
2022/05/30 00:04:44;;;;;;;;;;;;;;;17.45;58.42;100076.38;4997958;28;20053;-84
2022/05/30 00:07:29;;;;;;;3.45;1.63;;;;;;;17.35;59.25;100079.81;4997236;28;19917;-84
2022/05/30 00:10:14;;;;;;;;;;;;;;;17.09;60.45;100086.19;4997791;28;20045;-84
2022/05/30 00:12:59;;;;;;;4.17;1.10;;;;;;;17.14;59.68;100073.28;4999014;28;19917;-85
2022/05/30 00:15:43;;;;;;;1.48;0.93;;;;;;;17.28;59.34;100070.69;5000325;28;20284;-83
2022/05/30 00:18:29;;;;;;;5.07;2.00;;;;;;;17.35;59.16;100070.78;5000834;28;20518;-83
2022/05/30 00:21:18;;;;;;;2.00;1.35;;;;;;;17.28;60.50;100067.94;5000009;28;20057;-84
2022/05/30 00:24:03;;;;;;;6.75;2.22;;;;;;;17.16;61.35;100068.22;5000176;28;20041;-84
2022/05/30 00:26:48;;;;;;;3.20;1.95;;;;;;;17.33;60.79;100073.09;5001814;28;20045;-83
2022/05/30 00:29:32;;;;;;;6.90;2.13;;;;;;;17.37;62.08;100090.44;5017417;28;20414;-84
2022/05/30 00:32:18;;;;;;;2.38;1.40;;;;;;;17.85;60.53;100092.13;5000284;28;20049;-83
2022/05/30 00:35:05;;;;;;;6.05;1.92;;;;;;;18.01;59.41;100083.63;5000516;28;20049;-84
2022/05/30 00:37:49;;;;;;;3.17;1.52;;;;;;;17.88;58.63;100063.84;5002222;28;20049;-84
2022/05/30 00:40:35;;;;;;;;;;;;;;;17.77;59.40;100048.44;5014568;28;20070;-85
2022/05/30 00:43:32;;;;;;;7.50;1.52;;;;;;;17.54;59.81;100065.06;4996643;28;19914;-85
2022/05/30 00:46:17;;;;;;;3.35;1.50;;;;;;;17.72;60.23;100077.09;5001656;28;20045;-86
2022/05/30 00:49:05;;;;;;;;;;;;;;;18.02;58.51;100070.66;5000008;28;20047;-82
2022/05/30 00:51:55;;;;;;;2.63;1.88;;;;;;;17.80;59.04;100056.72;5024087;23;19922;-78
2022/05/30 00:54:47;;;;;;;5.15;2.13;;;;;;;17.64;59.58;100056.16;5012195;28;20061;-80
2022/05/30 00:57:33;;;;;;;7.22;1.77;;;;;;;17.53;60.24;100050.53;5014196;28;20430;-78
2022/05/30 01:00:21;;;;;;;2.03;1.83;;;;;;;17.53;60.14;100047.00;5014369;28;20521;-79
2022/05/30 01:09:22;;;;;;;2.08;1.52;;;;;;;17.35;59.82;100059.78;5010213;28;20061;-78
2022/05/30 01:12:09;;;;;;;3.05;1.90;;;;;;;17.38;61.27;100056.25;5009374;28;20549;-80
2022/05/30 01:14:55;;;;;;;3.67;1.90;;;;;;;17.41;60.71;100045.31;5016163;28;20084;-79
2022/05/30 01:17:48;;;;;;;;;;;;;;;17.16;62.21;100033.28;5016032;28;20061;-80
2022/05/30 01:20:57;;;;;;;4.90;2.20;;;;;;;17.04;62.14;100042.56;5013447;28;19913;-79
2022/05/30 01:23:58;;;;;;;2.53;1.88;;;;;;;17.08;62.72;100054.38;5015873;28;20044;-79
2022/05/30 01:27:34;;;;;;;2.78;1.88;;;;;;;17.41;62.14;100061.81;5013506;28;20068;-80
2022/05/30 01:30:20;;;;;;;5.53;1.50;;;;;;;17.94;61.43;100059.56;5010484;28;20041;-80
2022/05/30 01:33:06;;;;;;;8.05;2.75;;;;;;;18.08;59.57;100055.38;5013463;28;20049;-78
2022/05/30 01:35:51;;;;;;;2.42;1.80;;;;;;;17.72;60.16;100059.78;5014148;28;20048;-81
2022/05/30 01:38:36;;;;;;;3.97;2.20;;;;;;;17.50;59.87;100042.25;5016681;28;20072;-79
2022/05/30 01:41:23;;;;;;;2.92;1.98;;;;;;;17.34;61.73;100039.75;5014340;28;20056;-82
2022/05/30 01:44:08;;;;;;;3.60;2.33;;;;;;;17.27;62.02;100039.66;5018598;28;20049;-82
2022/05/30 01:46:52;;;;;;;;;;;;;;;17.19;61.39;100042.72;5016552;28;20045;-81
2022/05/30 01:49:37;;;;;;;3.77;2.13;;;;;;;17.12;62.10;100042.66;5014224;28;19921;-82
2022/05/30 01:52:23;;;;;;;7.38;2.45;;;;;;;17.21;61.93;100043.13;5014067;28;20279;-80
2022/05/30 01:55:09;;;;;;;3.22;2.70;;;;;;;17.20;62.28;100036.84;5013684;28;20061;-82
2022/05/30 01:58:21;;;;;;;3.20;2.58;;;;;;;17.07;62.88;100044.53;5011701;28;20056;-80
2022/05/30 02:01:44;;;;;;;3.30;2.50;;;;;;;17.03;64.31;100040.97;5016468;28;20052;-81
2022/05/30 02:04:29;;;;;;;6.72;2.42;;;;;;;16.96;63.70;100048.34;5013188;28;20049;-81
2022/05/30 02:07:14;;;;;;;5.78;2.03;;;;;;;16.99;63.12;100042.09;5013326;28;20045;-82
2022/05/30 02:09:59;;;;;;;3.08;2.50;;;;;;;17.03;64.25;100049.22;5015086;28;20044;-82
2022/05/30 02:12:45;;;;;;;3.38;2.65;;;;;;;17.05;64.24;100048.84;5013275;28;20052;-80
2022/05/30 02:18:47;;;;;;;7.97;2.47;;;;;;;16.87;65.41;100043.13;5013673;28;20041;-81
2022/05/30 02:21:34;;;;;;;3.13;2.42;;;;;;;16.95;64.79;100041.28;5015835;28;20073;-80
2022/05/30 02:24:20;;;;;;;4.45;2.58;;;;;;;16.92;65.46;100053.78;5019228;28;20117;-81
2022/05/30 02:27:08;;;;;;;5.78;2.63;;;;;;;16.98;64.05;100068.78;5013228;28;20045;-82
2022/05/30 02:29:53;;;;;;;4.65;2.72;;;;;;;17.14;63.22;100073.28;5009166;28;20049;-79
2022/05/30 02:32:39;;;;;;;4.85;2.70;;;;;;;17.12;62.78;100067.38;5014950;28;20044;-78
2022/05/30 02:38:29;;;;;;;10.95;2.47;;;;;;;17.02;62.88;100064.09;5015830;28;20045;-80
2022/05/30 02:41:35;;;;;;;4.28;2.47;;;;;;;17.04;62.56;100061.00;5014256;28;20040;-79
2022/05/30 02:44:25;;;;;;;3.75;2.50;;;;;;;16.97;63.39;100064.44;5016617;28;20048;-78
2022/05/30 02:47:11;;;;;;;4.65;2.47;;;;;;;16.81;64.18;100044.63;5015175;28;20052;-81
2022/05/30 02:50:01;;;;;;;5.43;2.20;;;;;;;16.68;65.44;100052.31;5012986;28;20061;-82
2022/05/30 02:52:47;;;;;;;4.53;2.70;;;;;;;16.65;66.36;100061.31;5016969;28;20049;-79
2022/05/30 02:55:37;;;;;;;4.00;2.40;;;;;;;16.63;65.31;100058.13;5014145;28;20057;-82
2022/05/30 02:58:22;;;;;;;;;;;;;;;17.89;64.45;100042.63;5013132;28;20549;-79
2022/05/30 03:01:07;;;;;;;246.95;46.78;;;;;;;18.85;60.94;100046.78;5012531;28;20386;-81
2022/05/30 03:03:53;;;;;;;63.22;13.95;;;;;;;19.41;58.74;100057.22;5012544;28;20054;-79
2022/05/30 03:06:39;;;;;;;4.50;2.50;;;;;;;19.91;56.78;100051.81;5017920;28;20042;-81
2022/05/30 03:09:24;;;;;;;14.82;4.30;;;;;;;20.07;55.90;100052.19;5016311;28;20053;-82
2022/05/30 03:12:30;;;;;;;4.68;1.63;;;;;;;20.28;54.95;100051.38;5011828;28;20049;-80
2022/05/30 03:15:15;;;;;;;10.02;1.85;;;;;;;20.42;54.61;100054.13;5011942;28;20399;-81
2022/05/30 03:18:02;;;;;;;3.53;1.25;;;;;;;20.42;54.44;100060.44;5018082;28;20419;-82
2022/05/30 03:20:47;;;;;;;4.18;1.30;;;;;;;20.42;54.56;100057.69;5016214;28;20053;-83
2022/05/30 03:23:32;;;;;;;;;;;;;;;20.55;54.15;100051.75;5013804;28;20049;-84
2022/05/30 03:26:29;;;;;;;2.95;1.58;;;;;;;20.55;53.85;100051.75;5018823;28;19913;-82
2022/05/30 03:29:14;;;;;;;1.48;1.05;;;;;;;20.55;53.80;100046.22;5018049;28;20049;-80
2022/05/30 03:32:02;;;;;;;3.45;2.03;;;;;;;20.60;53.50;100045.81;5011668;28;20057;-80
2022/05/30 03:34:47;;;;;;;2.55;1.33;;;;;;;20.64;53.81;100049.34;5011786;28;20049;-82
2022/05/30 03:37:34;;;;;;;;;;;;;;;20.70;53.22;100050.53;5013389;28;20048;-79
2022/05/30 03:40:39;;;;;;;4.85;1.17;;;;;;;20.71;53.44;100054.88;5017131;28;20390;-82
2022/05/30 03:43:44;;;;;;;2.30;1.40;;;;;;;20.73;53.36;100060.75;5012075;28;20041;-80
2022/05/30 03:46:30;;;;;;;4.53;1.13;;;;;;;20.77;53.36;100056.03;5012402;28;20050;-81
2022/05/30 03:49:16;;;;;;;2.03;1.00;;;;;;;20.80;53.25;100058.78;5019208;28;20049;-81
2022/05/30 03:52:01;;;;;;;5.00;1.88;;;;;;;20.78;53.19;100063.91;5016272;28;20517;-81
2022/05/30 03:54:46;;;;;;;2.05;1.30;;;;;;;20.74;53.02;100068.66;5007291;28;20044;-82
2022/05/30 03:57:31;;;;;;;4.10;1.00;;;;;;;20.80;53.43;100077.34;5018662;28;20056;-81
2022/05/30 04:00:20;;;;;;;2.95;1.95;;;;;;;20.18;54.27;100082.53;5015491;28;20053;-79
2022/05/30 04:03:11;;;;;;;3.35;1.98;;;;;;;19.55;55.95;100064.78;5015618;28;20049;-82
2022/05/30 04:05:56;;;;;;;9.82;2.42;;;;;;;19.29;56.18;100060.38;4995736;28;20037;-81
2022/05/30 04:08:41;;;;;;;3.80;2.55;;;;;;;18.73;57.85;100067.22;5015241;28;20052;-81
2022/05/30 04:11:44;;;;;;;3.28;2.42;;;;;;;18.73;58.88;100069.97;5015537;28;20077;-81
2022/05/30 04:14:55;;;;;;;3.05;2.28;;;;;;;18.52;59.64;100069.03;5014805;28;20049;-80
2022/05/30 04:17:45;;;;;;;3.22;2.40;;;;;;;18.22;60.98;100074.75;5020241;28;20045;-81
2022/05/30 04:20:30;;;;;;;;;;;;;;;18.09;61.44;100070.69;5017836;28;20076;-79
2022/05/30 04:23:15;;;;;;;3.25;2.03;;;;;;;18.09;60.61;100067.94;5015299;28;19913;-81
2022/05/30 04:26:07;;;;;;;3.90;2.13;;;;;;;17.97;62.06;100085.56;5014836;28;20041;-82
2022/05/30 04:28:55;;;;;;;2.72;1.88;;;;;;;18.35;61.68;100098.03;5013966;28;20053;-84
2022/05/30 04:32:12;;;;;;;3.10;2.00;;;;;;;18.49;60.61;100091.84;5018263;28;20423;-84
2022/05/30 04:34:57;;;;;;;3.40;2.13;;;;;;;18.32;60.20;100087.78;5015146;28;20045;-83
2022/05/30 04:37:46;;;;;;;7.18;2.90;;;;;;;17.20;64.08;100078.06;5014719;28;20061;-82
2022/05/30 04:40:51;;;;;;;4.30;2.25;;;;;;;16.86;65.80;100077.28;5014435;28;20052;-81
2022/05/30 04:43:55;;;;;;;4.88;2.33;;;;;;;16.77;66.06;100084.97;5012795;28;20044;-82
2022/05/30 04:46:59;;;;;;;5.32;2.20;;;;;;;17.24;65.68;100091.84;5009810;28;20041;-82
2022/05/30 04:49:47;;;;;;;3.22;2.05;;;;;;;17.98;63.08;100100.09;5018089;28;20057;-80
2022/05/30 04:52:32;;;;;;;7.65;2.50;;;;;;;17.32;64.39;100090.78;5013085;28;20426;-82
2022/05/30 04:55:25;;;;;;;3.15;2.15;;;;;;;17.87;64.63;100094.50;5020214;28;20052;-83
2022/05/30 04:58:15;;;;;;;8.48;2.67;;;;;;;18.64;61.41;100099.06;5017074;28;20041;-81
2022/05/30 05:01:12;;;;;;;6.07;3.13;;;;;;;18.84;60.35;100094.03;5018119;28;20056;-80
2022/05/30 05:03:59;;;;;;;5.55;2.45;;;;;;;19.10;59.84;100104.78;5019387;28;20053;-81
2022/05/30 05:06:44;;;;;;;53.03;10.77;;;;;;;19.45;58.43;100099.44;5015837;28;20088;-81
2022/05/30 05:09:45;;;;;;;28.08;8.55;;;;;;;19.76;56.57;100108.94;5014238;28;20042;-82
2022/05/30 05:12:48;;;;;;;17.33;4.05;;;;;;;19.74;57.29;100105.78;5012187;28;20518;-80
2022/05/30 05:16:02;;;;;;;27.00;4.15;;;;;;;19.94;57.53;100117.25;5012491;28;20049;-80
2022/05/30 05:18:51;;;;;;;6.03;3.00;;;;;;;19.97;57.54;100119.22;5017570;28;20041;-80
2022/05/30 05:21:39;;;;;;;6.32;2.53;;;;;;;20.05;57.37;100123.56;5015722;28;20430;-81
2022/05/30 05:24:25;;;;;;;9.80;3.45;;;;;;;19.95;57.18;100132.63;5013720;28;20522;-79
2022/05/30 05:27:35;;;;;;;5.38;2.20;;;;;;;19.94;57.76;100137.38;5016705;28;20049;-79
2022/05/30 05:30:20;;;;;;;5.38;2.05;;;;;;;19.99;56.96;100130.66;5014422;28;20061;-80
2022/05/30 05:33:05;;;;;;;8.40;2.70;;;;;;;19.68;58.37;100123.91;5018804;28;20411;-80
2022/05/30 05:35:50;;;;;;;3.25;2.53;;;;;;;18.99;58.17;100117.75;5014655;28;20540;-80
2022/05/30 05:38:35;;;;;;;;;;;;;;;18.79;57.61;100120.00;5012690;28;20517;-78
2022/05/30 05:41:25;;;;;;;6.28;2.08;;;;;;;18.37;58.02;100128.72;5013342;28;19913;-77
2022/05/30 05:44:19;;;;;;;7.72;2.20;;;;;;;18.38;58.73;100128.34;5012848;28;20036;-77
2022/05/30 05:47:06;;;;;;;7.18;2.35;;;;;;;18.53;57.33;100126.50;5011697;28;20065;-77
2022/05/30 05:49:50;;;;;;;2.65;1.70;;;;;;;18.44;57.22;100133.50;5010359;28;20053;-78
2022/05/30 05:52:35;;;;;;;4.13;1.85;;;;;;;18.15;57.67;100138.75;5013362;28;20053;-77
2022/05/30 05:55:29;;;;;;;4.55;1.67;;;;;;;17.92;57.74;100146.41;5013639;28;20053;-79
2022/05/30 05:58:14;;;;;;;3.88;1.90;;;;;;;17.46;59.85;100143.16;5027716;28;20053;-79
2022/05/30 06:01:12;;;;;;;3.75;1.73;;;;;;;17.58;58.71;100140.13;5015896;28;20418;-79
2022/05/30 06:04:01;;;;;;;2.80;2.17;;;;;;;17.41;60.05;100138.00;5012500;28;20045;-77
2022/05/30 06:07:01;;;;;;;2.40;2.15;;;;;;;16.96;61.21;100142.53;5010753;28;20033;-77
2022/05/30 06:09:58;;;;;;;5.00;2.10;;;;;;;17.00;63.10;100148.88;5006614;28;20053;-78
2022/05/30 06:12:56;;;;;;;5.55;2.95;;;;;;;16.78;62.82;100149.72;5015617;28;20037;-78
2022/05/30 06:15:41;;;;;;;;;;;;;;;16.87;62.48;100154.94;5014613;28;20068;-77
2022/05/30 06:18:31;;;;;;;3.53;2.67;;;;;;;17.34;60.73;100144.19;5010891;28;20386;-78
2022/05/30 06:21:17;;;;;;;;;;;;;;;17.48;59.85;100146.28;5012849;28;20044;-77
2022/05/30 06:24:05;;;;;;;112.22;8.13;;;;;;;17.60;61.00;100145.28;5009535;28;20293;-77
2022/05/30 06:27:15;;;;;;;4.37;2.47;;;;;;;17.72;59.07;100148.59;5012870;28;20413;-77
2022/05/30 06:30:14;;;;;;;2.33;1.67;;;;;;;17.59;59.29;100147.25;5012643;28;20065;-77
2022/05/30 06:32:59;;;;;;;6.93;2.80;;;;;;;17.59;58.50;100152.75;5012665;28;20053;-77
2022/05/30 06:36:07;;;;;;;2.75;1.98;;;;;;;17.56;58.14;100155.44;5012550;28;20530;-78
2022/05/30 06:38:55;;;;;;;5.68;2.10;;;;;;;17.64;57.78;100151.63;5012332;28;20048;-78
2022/05/30 06:41:54;;;;;;;6.28;2.13;;;;;;;17.94;57.63;100166.88;5016877;28;20048;-78
2022/05/30 06:44:40;;;;;;;3.28;2.25;;;;;;;18.58;54.33;100164.72;5003006;28;20056;-77
2022/05/30 06:47:44;;;;;;;5.13;2.03;;;;;;;18.79;53.74;100166.81;5004199;28;20041;-78
2022/05/30 06:51:07;;;;;;;5.18;2.33;;;;;;;19.32;51.78;100161.59;5038361;22;20049;-79
2022/05/30 06:53:55;;;;;;;6.32;2.25;;;;;;;19.17;52.83;100159.94;4997576;28;20057;-79
2022/05/30 06:58:12;;;;;;;13.63;3.28;;;;;;;19.32;51.83;100163.56;4997300;28;20415;-80
2022/05/30 06:59:49;;;;;;;12.18;2.60;;;;;;;19.47;52.47;100162.47;4995687;28;20045;-81
2022/05/30 07:02:36;;;;;;;7.15;2.35;;;;;;;19.77;52.04;100171.22;4997831;28;20053;-81
2022/05/30 07:05:42;;;;;;;4.15;2.17;;;;;;;19.80;51.29;100180.69;4995952;28;20045;-82
2022/05/30 07:08:50;;;;;;;11.75;3.55;;;;;;;20.06;49.34;100180.38;4989357;28;20049;-81
2022/05/30 07:11:51;;;;;;;3.08;2.15;;;;;;;20.18;50.34;100179.97;4989569;28;20038;-81
2022/05/30 07:14:39;;;;;;;4.95;2.45;;;;;;;21.13;48.44;100192.19;4996329;28;20423;-81
2022/05/30 07:17:25;;;;;;;8.07;2.17;;;;;;;20.45;49.59;100192.25;4997017;28;20049;-81
2022/05/30 07:20:10;;;;;;;3.42;1.65;;;;;;;21.06;46.44;100197.72;4996452;28;20510;-78
2022/05/30 07:23:15;;;;;;;7.43;1.95;;;;;;;20.36;47.64;100202.13;4998320;28;20423;-81
2022/05/30 07:26:20;;;;;;;3.05;1.90;;;;;;;19.67;49.53;100199.56;4995342;28;20403;-81
2022/05/30 07:29:40;;;;;;;2.00;1.45;;;;;;;19.02;49.99;100205.13;4996038;28;20049;-81
2022/05/30 07:33:00;;;;;;;3.30;1.52;;;;;;;19.36;48.96;100205.72;4992368;28;20418;-81
2022/05/30 07:36:08;;;;;;;1.40;0.90;;;;;;;20.45;45.78;100206.06;4995696;28;20526;-81
2022/05/30 07:39:08;;;;;;;13.75;2.13;;;;;;;23.15;40.52;100199.19;4996012;28;20050;-81
2022/05/30 07:42:13;;;;;;;3.00;1.45;;;;;;;24.82;35.34;100211.56;4995913;28;20054;-80
2022/05/30 07:45:17;;;;;;;2.97;1.08;;;;;;;23.33;38.58;100216.44;4995388;28;20407;-82
2022/05/30 07:48:22;;;;;;;2.85;1.25;;;;;;;22.78;39.70;100211.06;4996339;28;20419;-81
2022/05/30 07:51:25;;;;;;;2.20;1.13;;;;;;;21.23;42.33;100217.03;4995161;28;20526;-81
2022/05/30 07:54:16;;;;;;;2.03;1.23;;;;;;;21.37;43.24;100218.22;4995410;28;20403;-81
2022/05/30 07:57:13;;;;;;;4.18;1.10;;;;;;;20.86;43.71;100220.25;4999282;28;20415;-81
2022/05/30 07:59:58;;;;;;;2.63;1.48;;;;;;;19.93;45.77;100215.03;4996194;28;20045;-82
2022/05/30 08:02:43;;;;;;;2.03;1.10;;;;;;;19.19;48.11;100212.72;4996530;28;20057;-80
2022/05/30 08:05:28;;;;;;;;;;;;;;;19.64;46.31;100220.47;4997903;28;20404;-81
2022/05/30 08:08:25;;;;;;;2.90;1.50;;;;;;;20.21;44.75;100215.09;4995591;28;19917;-81
2022/05/30 08:11:12;;;;;;;1.65;1.33;;;;;;;20.39;44.46;100220.66;4994996;28;20065;-81
2022/05/30 08:14:07;;;;;;;4.32;1.77;;;;;;;20.33;44.79;100219.47;4996197;28;20175;-81
2022/05/30 08:16:51;;;;;;;1.90;1.45;;;;;;;20.71;44.01;100210.41;4997336;28;20057;-81
2022/05/30 08:19:39;;;;;;;1.70;1.45;;;;;;;20.68;43.71;100229.72;4996113;28;20057;-81
2022/05/30 08:22:25;;;;;;;3.45;1.75;;;;;;;20.58;43.08;100223.03;4996215;28;20407;-81
2022/05/30 08:25:14;;;;;;;3.03;1.40;;;;;;;20.77;44.12;100219.09;4996805;28;20057;-81
2022/05/30 08:28:00;;;;;;;1.85;1.30;;;;;;;21.17;42.11;100221.44;4995785;28;20537;-81
2022/05/30 08:30:45;;;;;;;2.95;1.70;;;;;;;22.70;39.41;100224.19;4998472;28;20053;-81
2022/05/30 08:33:50;;;;;;;1.88;1.65;;;;;;;22.90;38.62;100221.66;4993944;28;20057;-81
2022/05/30 08:36:35;;;;;;;3.05;1.85;;;;;;;22.84;38.96;100226.84;4999523;28;20057;-81
2022/05/30 08:42:28;;;;;;;2.50;1.58;;;;;;;21.86;40.57;100231.81;4997903;28;20041;-81
2022/05/30 08:45:32;;;;;;;5.28;1.58;;;;;;;22.43;39.68;100231.50;4999200;28;20033;-81
2022/05/30 08:48:41;;;;;;;17.65;2.00;;;;;;;21.41;42.59;100233.59;4990499;28;20050;-81
2022/05/30 08:51:48;;;;;;;7.00;2.22;;;;;;;20.56;44.37;100230.16;5000779;28;20423;-81
2022/05/30 08:54:51;;;;;;;5.18;2.22;;;;;;;20.71;44.70;100231.72;4997895;28;20057;-81
2022/05/30 08:57:58;;;;;;;4.03;2.10;;;;;;;21.28;43.00;100230.47;4990970;28;20053;-81
2022/05/30 09:00:53;;;;;;;4.22;2.13;;;;;;;20.80;43.73;100224.59;4998102;28;20054;-81
2022/05/30 09:04:08;;;;;;;4.13;2.00;;;;;;;21.42;42.11;100226.09;5004362;28;20408;-81
2022/05/30 09:07:01;;;;;;;9.00;2.22;;;;;;;21.40;42.06;100225.69;5000286;28;20053;-81
2022/05/30 09:09:53;;;;;;;5.55;2.08;;;;;;;21.73;41.99;100225.19;5004148;28;20037;-81
2022/05/30 09:12:54;;;;;;;2.35;1.40;;;;;;;21.66;39.59;100226.00;4993410;28;20057;-81
2022/05/30 09:16:03;;;;;;;1.90;1.50;;;;;;;22.04;39.85;100229.81;4992474;28;20045;-80
2022/05/30 09:18:54;;;;;;;1.45;0.95;;;;;;;22.16;39.50;100222.97;5000800;28;20053;-81
2022/05/30 09:21:39;;;;;;;2.25;1.17;;;;;;;22.03;39.99;100225.44;5000394;28;20419;-81
2022/05/30 09:24:24;;;;;;;1.45;1.00;;;;;;;22.25;37.97;100222.56;5000009;28;20058;-81
2022/05/30 09:27:12;;;;;;;1.58;1.10;;;;;;;22.27;38.03;100229.25;4999856;28;20037;-81
2022/05/30 09:30:01;;;;;;;2.35;1.10;;;;;;;22.01;37.68;100232.56;4994836;28;20069;-81
2022/05/30 09:33:09;;;;;;;;;;;;;;;22.23;37.67;100224.94;5000890;28;20050;-81
2022/05/30 09:36:20;;;;;;;1.10;0.70;;;;;;;22.31;37.55;100229.22;4995471;28;19918;-80
2022/05/30 09:39:47;;;;;;;3.58;0.93;;;;;;;21.70;37.52;100226.75;5002449;28;20053;-80
2022/05/30 09:42:37;;;;;;;3.00;0.73;;;;;;;21.90;37.87;100215.97;4999678;28;20053;-81
2022/05/30 09:45:28;;;;;;;7.43;0.70;;;;;;;22.23;35.20;100225.72;4999832;28;20049;-81
2022/05/30 09:48:23;;;;;;;1.35;0.90;;;;;;;22.50;34.55;100218.38;5001110;28;20537;-79
2022/05/30 09:51:31;;;;;;;0.82;0.50;;;;;;;22.52;34.53;100229.06;4995849;28;20317;-79
2022/05/30 09:54:26;;;;;;;;;;;;;;;22.43;37.09;100225.97;4993021;28;20045;-79
2022/05/30 09:57:22;;;;;;;1.92;0.70;;;;;;;22.46;40.26;100217.63;4994400;28;19918;-77
2022/05/30 10:00:54;;;;;;;4.30;0.80;;;;;;;22.62;33.98;100211.56;4980782;28;20435;-80
2022/05/30 10:03:41;;;;;;;0.80;0.60;;;;;;;22.51;35.82;100210.84;4996004;28;20045;-78
2022/05/30 10:07:06;;;;;;;1.55;0.77;;;;;;;22.71;34.13;100205.56;4994144;28;20096;-77
2022/05/30 10:10:26;;;;;;;2.78;0.95;;;;;;;22.49;34.76;100213.25;4995030;28;20045;-79
2022/05/30 10:13:28;;;;;;;;;;;;;;;22.80;33.50;100214.22;4992250;28;20057;-77
2022/05/30 10:16:34;;;;;;;13.50;1.63;;;;;;;22.64;34.17;100214.72;4999400;28;19918;-78
2022/05/30 10:19:26;;;;;;;1.83;0.50;;;;;;;23.01;32.31;100217.56;4997588;28;20046;-78
2022/05/30 10:29:50;;;;;;;1.25;1.10;;;;;;;23.81;32.94;100221.81;4996191;28;20050;-83
2022/05/30 10:33:09;;;;;;;4.65;1.00;;;;;;;23.42;33.27;100216.72;4980222;28;20062;-82
2022/05/30 10:35:56;;;;;;;1.50;1.10;;;;;;;23.83;31.85;100217.41;4989278;28;20053;-81
2022/05/30 10:39:16;;;;;;;1.58;0.73;;;;;;;23.84;30.85;100212.66;4988967;28;20058;-81
2022/05/30 10:42:11;;;;;;;8.00;1.83;;;;;;;23.65;31.98;100216.88;4978161;28;20041;-81
2022/05/30 10:45:10;;;;;;;5.05;0.82;;;;;;;23.59;32.18;100220.50;4982462;28;20054;-78
2022/05/30 10:47:59;;;;;;;0.93;0.50;;;;;;;23.12;33.75;100213.88;4974442;28;20045;-78
2022/05/30 10:50:57;;;;;;;0.90;0.57;;;;;;;23.92;31.26;100218.91;4976427;28;20069;-81
2022/05/30 10:54:11;;;;;;;0.98;0.57;;;;;;;24.17;30.44;100216.59;4980970;28;20049;-79
2022/05/30 10:57:30;;;;;;;32.05;3.58;;;;;;;24.35;28.83;100219.09;4974455;28;20444;-78
2022/05/30 11:00:22;;;;;;;10.10;1.15;;;;;;;24.03;30.98;100220.31;4976162;28;20079;-76
2022/05/30 11:03:22;;;;;;;1.90;0.65;;;;;;;24.11;31.96;100218.22;4986357;28;20041;-76
2022/05/30 11:06:21;;;;;;;7.55;1.10;;;;;;;23.82;32.97;100210.28;4992253;28;20054;-79
2022/05/30 11:09:30;;;;;;;1.48;0.90;;;;;;;23.54;32.54;100210.66;4989176;28;20042;-79
2022/05/30 11:12:32;;;;;;;6.22;0.70;;;;;;;23.38;31.70;100213.19;4972292;28;20046;-79
2022/05/30 11:15:28;;;;;;;1.48;0.57;;;;;;;23.46;31.63;100220.28;4977130;28;20518;-81
2022/05/30 11:18:46;;;;;;;3.10;0.60;;;;;;;23.34;30.55;100221.56;4983398;28;20534;-79
2022/05/30 11:21:45;;;;;;;1.13;0.35;;;;;;;23.11;30.87;100215.84;4978969;28;20065;-80
2022/05/30 11:24:32;;;;;;;5.18;0.60;;;;;;;22.91;31.46;100218.44;4977713;28;20042;-78
2022/05/30 11:27:33;;;;;;;5.72;0.95;;;;;;;22.91;31.23;100218.44;4973911;28;20042;-80
2022/05/30 11:30:52;;;;;;;2.58;0.60;;;;;;;22.77;31.51;100218.56;4995532;28;20045;-79
2022/05/30 11:33:55;;;;;;;1.13;0.40;;;;;;;22.80;32.04;100223.31;4984168;28;20565;-77
2022/05/30 11:36:49;;;;;;;0.75;0.30;;;;;;;23.10;30.57;100221.84;4977331;28;20045;-78
2022/05/30 11:40:05;;;;;;;1.27;0.65;;;;;;;22.96;30.70;100225.53;4976491;28;20065;-80
2022/05/30 11:43:14;;;;;;;2.78;0.22;;;;;;;23.15;30.13;100224.16;4974630;28;20034;-78
2022/05/30 11:46:33;;;;;;;3.63;0.32;;;;;;;23.24;31.15;100224.47;4992224;28;20046;-78
2022/05/30 11:49:47;;;;;;;1.13;0.35;;;;;;;23.30;29.59;100229.16;4973337;28;20053;-78
2022/05/30 11:52:44;;;;;;;2.05;0.57;;;;;;;23.21;29.91;100230.84;4996142;28;20526;-81
2022/05/30 11:55:48;;;;;;;1.27;0.40;;;;;;;23.02;30.51;100218.34;4975549;28;20049;-78
2022/05/30 11:58:32;;;;;;;2.95;0.40;;;;;;;22.83;31.12;100221.69;4974909;28;20053;-80
2022/05/30 12:01:20;;;;;;;0.73;0.40;;;;;;;22.89;31.33;100220.84;4972507;28;20045;-80
2022/05/30 12:04:34;;;;;;;0.45;0.30;;;;;;;22.82;32.59;100229.22;4975856;28;20069;-78
2022/05/30 12:07:49;;;;;;;8.90;0.52;;;;;;;22.81;31.70;100224.09;4974392;28;20042;-76
2022/05/30 12:10:54;;;;;;;1.65;0.28;;;;;;;22.93;30.95;100209.72;4980737;28;20058;-79
2022/05/30 12:13:54;;;;;;;1.10;0.20;;;;;;;23.00;31.26;100199.34;4985396;28;20050;-78
2022/05/30 12:17:01;;;;;;;1.27;0.40;;;;;;;23.06;30.99;100201.69;4981098;28;20050;-79
2022/05/30 12:23:48;;;;;;;1.48;0.30;;;;;;;22.98;31.39;100198.19;4978187;28;20058;-80
2022/05/30 12:26:57;;;;;;;1.90;0.20;;;;;;;22.89;31.49;100203.44;4979939;28;20046;-79
2022/05/30 12:29:47;;;;;;;0.40;0.35;;;;;;;22.66;31.04;100212.31;4978821;28;20050;-79
2022/05/30 12:32:39;;;;;;;0.20;0.20;;;;;;;22.66;30.92;100208.75;4993981;28;20046;-80
2022/05/30 12:35:26;;;;;;;2.17;0.30;;;;;;;22.57;32.22;100210.00;4971014;28;20053;-76
2022/05/30 12:38:15;;;;;;;0.65;0.40;;;;;;;22.58;31.54;100216.34;4970882;28;20053;-80
2022/05/30 12:41:28;;;;;;;0.93;0.40;;;;;;;22.54;31.86;100213.63;4964323;28;20046;-78
2022/05/30 12:44:47;;;;;;;0.73;0.40;;;;;;;22.49;32.80;100205.75;4992015;28;20065;-78
2022/05/30 12:47:33;;;;;;;0.75;0.47;;;;;;;22.35;32.96;100208.59;4974198;28;20051;-77
2022/05/30 12:50:40;;;;;;;6.07;0.70;;;;;;;22.42;33.71;100202.22;4970409;28;20062;-78
2022/05/30 12:53:57;;;;;;;1.58;0.40;;;;;;;22.43;32.78;100203.81;4981886;28;20050;-80
2022/05/30 12:56:47;;;;;;;0.73;0.60;;;;;;;22.35;33.07;100205.06;4973701;28;20046;-78
2022/05/30 12:59:34;;;;;;;4.28;0.63;;;;;;;22.39;34.15;100208.59;4977875;28;20510;-77
2022/05/30 13:02:57;;;;;;;2.47;0.50;;;;;;;22.33;33.42;100213.78;4972180;28;20065;-77
2022/05/30 13:05:45;;;;;;;1.88;0.60;;;;;;;22.32;33.36;100203.09;4970025;28;20054;-77
2022/05/30 13:08:57;;;;;;;1.40;0.80;;;;;;;22.32;33.89;100205.84;4968963;28;20119;-78
2022/05/30 13:11:59;;;;;;;5.75;0.85;;;;;;;22.30;34.16;100220.09;4978948;28;20097;-77
2022/05/30 13:14:55;;;;;;;1.73;0.47;;;;;;;22.22;34.13;100224.13;4977052;28;20045;-78
2022/05/30 13:18:01;;;;;;;1.38;0.57;;;;;;;22.20;34.57;100217.44;4995100;28;20415;-80
2022/05/30 13:20:53;;;;;;;1.88;0.95;;;;;;;22.12;35.41;100211.94;4974998;28;20500;-80
2022/05/30 13:23:38;;;;;;;1.25;1.00;;;;;;;22.20;36.48;100211.91;4975334;28;20058;-78
2022/05/30 13:26:23;;;;;;;3.10;1.10;;;;;;;22.16;36.08;100215.47;4979581;28;20408;-77
2022/05/30 13:29:08;;;;;;;1.90;1.30;;;;;;;22.08;36.55;100221.47;4970278;28;20045;-77
2022/05/30 13:31:53;;;;;;;2.40;1.05;;;;;;;22.13;36.01;100213.50;4973357;28;20050;-76
2022/05/30 13:34:46;;;;;;;2.30;1.20;;;;;;;22.09;35.73;100221.06;4994495;28;20054;-78
2022/05/30 13:37:34;;;;;;;2.47;0.80;;;;;;;22.04;36.56;100221.50;4989755;28;20058;-79
2022/05/30 13:40:24;;;;;;;2.97;1.02;;;;;;;22.06;35.87;100224.63;4968540;28;20416;-76
2022/05/30 13:43:19;;;;;;;10.10;1.02;;;;;;;22.13;36.06;100221.81;4971179;28;20403;-80
2022/05/30 13:46:03;;;;;;;4.45;1.50;;;;;;;22.05;35.81;100217.50;4975596;28;20069;-78
2022/05/30 13:48:48;;;;;;;1.92;1.38;;;;;;;22.06;35.79;100224.63;4965726;28;20411;-79
2022/05/30 13:51:40;;;;;;;3.97;1.10;;;;;;;22.09;36.04;100223.03;4969307;28;20411;-79
2022/05/30 13:54:25;;;;;;;7.18;0.95;;;;;;;22.08;35.92;100219.47;4989793;28;20049;-79
2022/05/30 13:57:12;;;;;;;2.00;1.10;;;;;;;22.18;36.13;100220.59;4993983;28;20050;-80
2022/05/30 14:00:04;;;;;;;1.65;0.95;;;;;;;22.03;35.73;100217.13;4973793;28;20054;-78
2022/05/30 14:02:49;;;;;;;2.70;1.05;;;;;;;22.10;35.94;100225.38;4976460;28;20050;-78
2022/05/30 14:05:40;;;;;;;5.28;0.80;;;;;;;22.20;36.00;100223.75;4980022;28;20057;-78